Latest Weather Observations for Central Arnhem Plateau

IDD60801

Issued at 10:01 am CST Wednesday 29 July 2015 (issued every 30 minutes, with the page automatically refreshed every 10 minutes)

About weather observations | Map of weather stations | Latest weather observations for NT | Other Formats
Station Details ID: 014909 Name: CENTRAL ARNHEM PLATEAU Lat: -13.33 Lon: 133.09 Height: 416.0 m
Data from the previous 72 hours. | See also: Recent months for locations in Northern Territory
Date/Time
CST
Temp
°C
App
Temp
°C
Dew
Point
Rel
Hum
%
Delta-T
°C
Wind Press
QNH
hPa
Press
MSL
hPa
Rain
since 9 am
mm
Dir
 
Spd
km/h
Gust
km/h
Spd
kts
Gust
kts
29/10:00am 22.8 16.2 7.8 38 8.0 ESE 32 44 17 24 1020.7 1018.8 0.0
29/09:37am 21.8 15.7 8.3 42 7.2 SE 30 50 16 27 1020.6 1018.7 0.0
29/09:30am 21.7 16.1 8.9 44 6.9 ESE 28 43 15 23 1020.6 1018.7 0.0
29/09:25am 21.8 16.5 9.7 46 6.6 ESE 28 46 15 25 1020.6 1018.7 0.0
29/09:00am 20.7 16.4 10.8 53 5.5 ESE 24 33 13 18 1020.5 1018.6 0.0
29/08:30am 19.3 15.5 11.1 59 4.6 ESE 22 32 12 17 1020.3 1018.4 0.0
29/08:00am 18.0 14.7 10.9 63 3.9 ESE 19 26 10 14 1019.9 1018.0 0.0
29/07:30am 16.9 14.2 10.3 65 3.6 ESE 15 20 8 11 1019.7 1017.8 0.0
29/07:00am 16.5 14.1 10.1 66 3.4 ESE 13 17 7 9 1019.4 1017.4 0.0
29/06:30am 17.0 14.2 10.1 64 3.7 SE 15 22 8 12 1019.0 1017.0 0.0
29/06:00am 17.4 14.5 9.8 61 4.1 SE 15 19 8 10 1018.7 1016.8 0.0
29/05:30am 18.2 15.3 9.8 58 4.5 SE 15 22 8 12 1018.5 1016.6 0.0
29/05:00am 18.3 15.2 10.2 59 4.4 ESE 17 20 9 11 1018.3 1016.4 0.0
29/04:30am 18.1 15.4 10.5 61 4.1 ESE 15 20 8 11 1018.4 1016.5 0.0
29/04:00am 18.5 16.3 10.8 61 4.2 ESE 13 17 7 9 1018.6 1016.7 0.0
29/03:30am 19.1 16.2 10.9 59 4.5 ESE 17 24 9 13 1018.6 1016.7 0.0
29/03:00am 19.5 16.1 11.3 59 4.6 ESE 20 33 11 18 1018.7 1016.8 0.0
29/02:30am 19.6 16.4 11.1 58 4.7 ESE 19 26 10 14 1018.8 1016.9 0.0
29/02:00am 19.8 16.9 11.0 57 4.9 ESE 17 20 9 11 1019.0 1017.0 0.0
29/01:30am 20.0 17.4 10.7 55 5.1 ESE 15 22 8 12 1019.3 1017.3 0.0
29/01:00am 20.2 17.0 10.0 52 5.6 ESE 17 22 9 12 1019.6 1017.7 0.0
29/12:30am 20.4 17.0 9.3 49 6.0 ESE 17 20 9 11 1019.7 1017.8 0.0
29/12:00am 20.8 17.8 9.1 47 6.3 ESE 15 19 8 10 1019.8 1017.9 0.0
 
Date/Time
CST
Temp
°C
App
Temp
°C
Dew
Point
Rel
Hum
%
Delta-T
°C
Wind Press
QNH
hPa
Press
MSL
hPa
Rain
since 9 am
mm
Dir
 
Spd
km/h
Gust
km/h
Spd
kts
Gust
kts
28/11:30pm 21.2 18.0 8.5 44 6.8 ESE 15 19 8 10 1019.8 1017.9 0.0
28/11:00pm 21.6 17.9 8.1 42 7.2 ESE 17 20 9 11 1020.0 1018.1 0.0
28/10:30pm 22.2 17.9 8.0 40 7.6 SE 20 28 11 15 1020.3 1018.4 0.0
28/10:00pm 22.5 18.7 7.5 38 8.0 ESE 17 24 9 13 1020.4 1018.5 0.0
28/09:30pm 22.8 18.8 6.6 35 8.4 ESE 17 20 9 11 1020.3 1018.4 0.0
28/09:00pm 23.1 19.0 6.4 34 8.7 ESE 17 24 9 13 1020.2 1018.3 0.0
28/08:30pm 23.2 19.8 6.0 33 8.9 SE 13 17 7 9 1020.0 1018.1 0.0
28/08:00pm 23.7 20.7 6.0 32 9.2 SE 11 15 6 8 1019.6 1017.7 0.0
28/07:30pm 24.5 21.6 6.3 31 9.5 ESE 11 15 6 8 1019.2 1017.2 0.0
28/07:00pm 25.4 21.3 6.1 29 10.1 ESE 17 24 9 13 1018.7 1016.8 0.0
28/06:30pm 26.0 21.3 6.1 28 10.5 ESE 20 30 11 16 1018.4 1016.5 0.0
28/06:00pm 26.8 21.6 5.7 26 11.1 ESE 22 32 12 17 1018.0 1016.1 0.0
28/05:30pm 27.6 22.1 5.8 25 11.5 ESE 24 35 13 19 1017.8 1015.9 0.0
28/05:00pm 28.1 22.8 5.0 23 12.1 ESE 22 32 12 17 1017.7 1015.8 0.0
28/04:30pm 27.9 21.8 4.9 23 12.0 ESE 26 39 14 21 1017.6 1015.7 0.0
28/04:00pm 28.0 21.9 5.0 23 12.1 SE 26 33 14 18 1017.5 1015.6 0.0
28/03:30pm 27.9 21.7 4.2 22 12.2 SE 26 37 14 20 1017.6 1015.7 0.0
28/03:00pm 27.4 21.5 3.8 22 12.1 ESE 24 33 13 18 1017.8 1015.9 0.0
28/02:30pm 27.5 21.6 3.9 22 12.1 SE 24 39 13 21 1018.0 1016.1 0.0
28/02:00pm 27.1 21.1 3.6 22 12.0 SE 24 39 13 21 1018.3 1016.4 0.0
28/01:30pm 26.5 19.4 3.7 23 11.6 SE 30 43 16 23 1018.8 1016.9 0.0
28/01:00pm 26.4 19.7 3.6 23 11.5 SE 28 39 15 21 1019.2 1017.2 0.0
28/12:30pm 26.0 20.4 3.3 23 11.4 SE 22 33 12 18 1019.7 1017.8 0.0
28/12:00pm 25.0 18.3 3.6 25 10.7 SE 28 44 15 24 1020.1 1018.2 0.0
28/11:30am 23.9 17.0 2.7 25 10.4 ESE 28 43 15 23 1020.3 1018.4 0.0
28/11:00am 23.3 16.0 2.7 26 10.1 ESE 30 41 16 22 1020.5 1018.6 0.0
28/10:30am 22.9 15.7 2.9 27 9.7 ESE 30 43 16 23 1020.8 1018.9 0.0
28/10:00am 22.1 14.5 2.8 28 9.4 ESE 32 44 17 24 1020.7 1018.8 0.0
28/09:31am 21.2 13.9 2.5 29 9.0 ESE 30 50 16 27 1020.5 1018.6 0.0
28/09:30am 21.5 14.6 2.7 29 9.0 ESE 28 39 15 21 1020.6 1018.7 0.0
28/09:00am 20.5 14.0 2.8 31 8.5 SE 26 39 14 21 1020.3 1018.4 0.0
28/08:55am 20.4 13.6 3.2 32 8.3 SE 28 46 15 25 1020.4 1018.5 0.0
28/08:30am 19.7 13.3 3.4 34 7.8 ESE 26 37 14 20 1020.3 1018.4 0.0
28/08:00am 18.8 13.3 4.2 38 7.1 SE 22 32 12 17 1020.1 1018.2 0.0
28/07:30am 18.2 13.3 5.1 42 6.4 SE 20 30 11 16 1019.9 1018.0 0.0
28/07:00am 18.3 12.3 5.5 43 6.4 SE 26 37 14 20 1019.8 1017.9 0.0
28/06:30am 18.3 13.2 7.7 50 5.5 SE 24 35 13 19 1019.7 1017.8 0.0
28/06:00am 18.5 14.4 8.7 53 5.2 SE 20 30 11 16 1019.4 1017.4 0.0
28/05:30am 19.1 13.8 8.4 50 5.6 SE 26 39 14 21 1019.1 1017.1 0.0
28/05:00am 19.3 14.5 8.9 51 5.6 SE 24 35 13 19 1019.1 1017.1 0.0
28/04:30am 19.5 15.1 9.1 51 5.6 SE 22 35 12 19 1019.1 1017.1 0.0
28/04:00am 19.4 15.4 9.0 51 5.6 SE 20 30 11 16 1019.2 1017.2 0.0
28/03:30am 19.6 15.6 9.2 51 5.6 SE 20 32 11 17 1019.3 1017.3 0.0
28/03:00am 19.9 16.1 8.9 49 5.9 SE 19 26 10 14 1019.3 1017.3 0.0
28/02:30am 20.0 16.1 8.7 48 6.0 SE 19 24 10 13 1019.2 1017.2 0.0
28/02:00am 20.4 16.8 8.4 46 6.4 SE 17 22 9 12 1019.5 1017.6 0.0
28/01:30am 20.8 17.2 8.4 45 6.6 SE 17 24 9 13 1019.7 1017.8 0.0
28/01:00am 21.2 17.2 8.1 43 7.0 SE 19 26 10 14 1019.7 1017.8 0.0
28/12:30am 21.4 18.5 8.3 43 7.0 ESE 13 17 7 9 1019.5 1017.6 0.0
28/12:00am 21.8 18.9 8.0 41 7.3 ESE 13 17 7 9 1019.5 1017.6 0.0
 
Date/Time
CST
Temp
°C
App
Temp
°C
Dew
Point
Rel
Hum
%
Delta-T
°C
Wind Press
QNH
hPa
Press
MSL
hPa
Rain
since 9 am
mm
Dir
 
Spd
km/h
Gust
km/h
Spd
kts
Gust
kts
27/11:30pm 22.3 19.0 8.1 40 7.6 ESE 15 19 8 10 1019.4 1017.4 0.0
27/11:00pm 22.5 19.6 8.2 40 7.7 ESE 13 15 7 8 1019.5 1017.6 0.0
27/10:30pm 23.1 19.9 8.4 39 7.9 E 15 22 8 12 1019.4 1017.4 0.0
27/10:00pm 23.5 20.4 8.8 39 8.0 ESE 15 20 8 11 1019.3 1017.3 0.0
27/09:30pm 24.1 21.3 8.5 37 8.5 ESE 13 17 7 9 1019.2 1017.2 0.0
27/09:00pm 24.7 21.4 8.2 35 9.0 ESE 15 20 8 11 1019.1 1017.1 0.0
27/08:30pm 25.3 21.7 8.3 34 9.3 ESE 17 22 9 12 1019.1 1017.1 0.0
27/08:00pm 25.9 21.7 8.4 33 9.6 ESE 20 30 11 16 1018.8 1016.9 0.0
27/07:30pm 26.2 22.1 8.7 33 9.7 ESE 20 30 11 16 1018.8 1016.9 0.0
27/07:00pm 26.9 22.1 8.8 32 10.1 ESE 24 33 13 18 1018.5 1016.6 0.0
27/06:46pm 27.2 21.6 8.6 31 10.3 ESE 28 48 15 26 1018.3 1016.4 0.0
27/06:30pm 27.4 22.5 8.3 30 10.5 ESE 24 35 13 19 1018.2 1016.3 0.0
27/06:00pm 28.1 22.0 8.4 29 10.9 ESE 30 41 16 22 1017.8 1015.9 0.0
27/05:30pm 28.9 24.4 8.6 28 11.3 ESE 22 37 12 20 1017.5 1015.6 0.0
27/05:00pm 29.0 22.6 8.7 28 11.4 ESE 32 43 17 23 1017.2 1015.2 0.0
27/04:30pm 29.6 24.9 10.7 31 11.0 ESE 26 41 14 22 1017.1 1015.1 0.0
27/04:00pm 29.3 24.5 10.4 31 10.9 ESE 26 37 14 20 1017.1 1015.1 0.0
27/03:30pm 29.2 23.9 11.3 33 10.5 ESE 30 44 16 24 1017.2 1015.2 0.0
27/03:00pm 29.0 24.7 12.0 35 10.0 ESE 26 39 14 21 1017.5 1015.6 0.0
27/02:30pm 28.5 24.3 12.4 37 9.6 ESE 26 43 14 23 1017.8 1015.9 0.0
27/02:00pm 29.2 25.5 13.8 39 9.4 ESE 26 39 14 21 1017.9 1016.0 0.0
27/01:30pm 28.3 23.7 13.4 40 9.0 E 30 43 16 23 1018.4 1016.5 0.0
27/01:00pm 26.7 22.2 13.8 45 7.8 ESE 30 43 16 23 1019.1 1017.1 0.0
27/12:30pm 27.8 23.3 14.8 45 8.0 E 32 46 17 25 1019.5 1017.6 0.0
27/12:00pm 27.1 22.6 14.8 47 7.5 ESE 32 44 17 24 1020.0 1018.1 0.0
27/11:30am 26.7 22.2 13.8 45 7.8 ESE 30 43 16 23 1020.4 1018.5 0.0
27/11:00am 27.5 23.9 14.2 44 8.1 ESE 26 33 14 18 1020.6 1018.7 0.0
27/10:30am 26.8 23.6 14.2 46 7.6 SE 24 35 13 19 1020.8 1018.9 0.0
27/10:00am 25.7 21.7 14.2 49 7.0 ESE 28 37 15 20 1020.9 1019.0 0.0
27/09:30am 25.2 20.9 14.3 50 6.6 ESE 30 39 16 21 1021.0 1019.1 0.0
27/09:00am 24.3 21.2 14.4 54 6.0 ESE 24 33 13 18 1020.8 1018.9 0.0
27/08:30am 23.6 20.6 14.9 58 5.3 ESE 24 33 13 18 1020.6 1018.7 0.0
27/08:00am 23.3 20.9 14.3 57 5.4 E 20 28 11 15 1020.2 1018.3 0.0
27/07:30am 23.0 20.6 13.8 56 5.5 ESE 19 30 10 16 1019.9 1018.0 0.0
27/07:00am 22.9 20.4 13.4 55 5.6 ESE 19 26 10 14 1019.6 1017.7 0.0
27/06:30am 22.9 20.7 13.4 55 5.6 ESE 17 28 9 15 1019.4 1017.4 0.0
27/06:00am 22.0 20.1 13.1 57 5.2 ESE 15 20 8 11 1019.0 1017.0 0.0
27/05:30am 21.9 20.5 13.3 58 5.0 ESE 13 15 7 8 1018.6 1016.7 0.0
27/05:00am 21.8 20.7 13.2 58 5.0 ESE 11 13 6 7 1018.5 1016.6 0.0
27/04:30am 22.4 20.8 12.9 55 5.5 E 13 15 7 8 1018.5 1016.6 0.0
27/04:00am 22.4 21.8 13.5 57 5.2 ESE 9 11 5 6 1018.5 1016.6 0.0
27/03:30am 22.2 21.9 13.3 57 5.2 ESE 7 9 4 5 1018.7 1016.8 0.0
27/03:00am 22.7 22.5 13.5 56 5.4 E 7 11 4 6 1018.8 1016.9 0.0
27/02:30am 23.2 22.6 13.4 54 5.8 E 9 13 5 7 1018.8 1016.9 0.0
27/02:00am 23.7 23.0 13.3 52 6.1 ESE 9 11 5 6 1019.2 1017.2 0.0
27/01:30am 23.9 23.6 13.2 51 6.3 E 7 9 4 5 1019.6 1017.7 0.0
27/01:00am 24.9 24.2 13.1 48 7.0 E 9 13 5 7 1019.7 1017.8 0.0
27/12:30am 25.2 24.5 13.1 47 7.2 ESE 9 13 5 7 1019.7 1017.8 0.0
27/12:00am 25.7 24.6 13.2 46 7.4 ESE 11 13 6 7 1020.0 1018.1 0.0
 
Date/Time
CST
Temp
°C
App
Temp
°C
Dew
Point
Rel
Hum
%
Delta-T
°C
Wind Press
QNH
hPa
Press
MSL
hPa
Rain
since 9 am
mm
Dir
 
Spd
km/h
Gust
km/h
Spd
kts
Gust
kts
26/11:30pm 26.2 24.7 13.0 44 7.8 ESE 13 19 7 10 1020.2 1018.3 0.0
26/11:00pm 26.8 24.6 13.2 43 8.1 ESE 17 22 9 12 1020.3 1018.4 0.0
26/10:30pm 27.1 24.6 13.4 42 8.2 ESE 19 26 10 14 1020.4 1018.5 0.0
26/10:00pm 27.4 25.2 13.4 42 8.4 ESE 17 22 9 12 1020.1 1018.2 0.0
26/09:30pm 27.4 26.4 13.4 42 8.4 ESE 11 17 6 9 1019.9 1018.0 0.0
26/09:00pm 27.6 26.1 13.2 41 8.6 ESE 13 17 7 9 1019.7 1017.8 0.0
26/08:30pm 27.8 26.8 13.3 40 8.7 ESE 11 13 6 7 1019.5 1017.6 0.0
26/08:00pm 28.2 27.5 13.3 40 9.0 ESE 9 13 5 7 1019.2 1017.2 0.0
26/07:30pm 28.6 27.9 13.3 39 9.2 ESE 9 11 5 6 1018.6 1016.7 0.0
26/07:00pm 29.0 27.8 12.8 36 9.7 ESE 11 15 6 8 1018.1 1016.2 0.0
26/06:30pm 29.5 27.4 12.4 35 10.2 ESE 15 20 8 11 1017.6 1015.7 0.0
26/06:00pm 30.2 28.4 12.1 32 10.8 ESE 13 17 7 9 1017.2 1015.2 0.0
26/05:30pm 30.6 28.0 12.0 32 11.1 E 17 24 9 13 1016.9 1014.9 0.0
26/05:00pm 30.9 27.9 11.8 31 11.4 ESE 19 32 10 17 1016.5 1014.5 0.0
26/04:30pm 31.2 28.2 12.1 31 11.4 E 19 28 10 15 1016.2 1014.3 0.0
26/04:00pm 31.4 28.7 11.7 29 11.7 E 17 32 9 17 1016.1 1014.2 0.0
26/03:30pm 32.1 28.9 11.8 29 12.1 E 20 28 11 15 1016.1 1014.2 0.0
26/03:00pm 30.6 26.5 11.5 30 11.3 ESE 24 35 13 19 1016.2 1014.3 0.0
26/02:30pm 31.5 28.1 11.3 29 11.9 ENE 20 26 11 14 1016.5 1014.5 0.0
26/02:00pm 31.5 27.6 10.8 28 12.1 ENE 22 32 12 17 1016.9 1014.9 0.0
26/01:30pm 31.1 28.1 12.5 32 11.2 ESE 20 32 11 17 1017.4 1015.5 0.0
26/01:00pm 30.1 26.0 11.6 32 10.9 ESE 24 32 13 17 1017.6 1015.7 0.0
26/12:30pm 31.1 27.5 12.0 31 11.4 ESE 22 30 12 16 1018.0 1016.1 0.0
26/12:00pm 29.9 27.0 10.9 31 11.1 E 17 28 9 15 1018.6 1016.7 0.0
26/11:30am 29.9 27.2 12.8 35 10.3 E 19 30 10 16 1019.0 1017.0 0.0
26/11:00am 29.1 26.2 12.9 37 9.7 E 20 32 11 17 1019.4 1017.4 0.0
26/10:30am 28.2 25.5 12.9 38 9.1 E 19 26 10 14 1019.6 1017.7 0.0

Other Formats:

Comma delimited format used in spreadsheet applications
http://www.bom.gov.au/fwo/IDD60801/IDD60801.94141.axf

JavaScript Object Notation format (JSON) in row-major order
http://www.bom.gov.au/fwo/IDD60801/IDD60801.94141.json